Bentonville (XNA/KXNA)

Map

Destinations

Information

Location
Bentonville, AR
Local Time
18:26 / 6:26 pm
GMT Time
00:26 / 12:26 am
Gates
Unassigned
No FAA reported delays
METAR KXNA 230020Z 34013G21KT 10SM OVC014 07/06 A2972 RMK AO2 T00720056 $
TAF KXNA 222322Z 2300/2324 33010G20KT P6SM OVC015 FM230200 34010KT P6SM OVC015 FM230800 32005KT 5SM BR OVC015 FM231500 VRB03KT P6SM BKN015
  • No charts available